This is the latest recevied weather packets stored in our database for station/object DA2PK. If no packets are shown the sender has not sent any weather packets the latest 10 day(s).
| Time | Temp. | Humidity | Pressure | Rain* | Wind** | Luminosity | Snow |
|---|---|---|---|---|---|---|---|
| 1777292420 | 16.11° C | 35% | 1022.8 hPa | 0 mm | - | 600 W/m² | - |
| 1777290019 | 15.56° C | 37% | 1023.2 hPa | 0 mm | - | 581 W/m² | - |
| 1777284019 | 14.44° C | 43% | 1023.8 hPa | 0 mm | - | 488 W/m² | - |
| 1777281621 | 13.33° C | 49% | 1024.2 hPa | 0 mm | - | 411 W/m² | - |
| 1777281020 | 13.33° C | 50% | 1024.3 hPa | 0 mm | - | 380 W/m² | - |
| 1777278618 | 12.22° C | 58% | 1024.4 hPa | 0 mm | - | 319 W/m² | - |
| 1777277420 | 11.67° C | 61% | 1024.3 hPa | 0 mm | - | 339 W/m² | - |
| 1777271440 | 8.89° C | 68% | 1024.7 hPa | 0 mm | - | 213 W/m² | - |
| 1777270220 | 8.33° C | 70% | 1024.8 hPa | 0 mm | - | 144 W/m² | - |
| 1777268419 | 7.22° C | 72% | 1024.5 hPa | 0 mm | - | 71 W/m² | - |
| 1777267818 | 7.22° C | 72% | 1024.4 hPa | 0 mm | - | 61 W/m² | - |
| 1777264218 | 6.67° C | 71% | 1023.9 hPa | 0 mm | - | 8 W/m² | - |
| 1777263620 | 6.67° C | 71% | 1023.9 hPa | 0 mm | - | 4 W/m² | - |
| 1777259417 | 7.22° C | 69% | 1024 hPa | 0 mm | - | 0 W/m² | - |
| 1777252219 | 7.78° C | 68% | 1024.3 hPa | 0 mm | - | 0 W/m² | - |
| 1777249819 | 8.33° C | 67% | 1024.3 hPa | 0 mm | - | 0 W/m² | - |
| 1777242618 | 9.44° C | 62% | 1024.3 hPa | 0 mm | - | 0 W/m² | - |
| 1777237819 | 10.56° C | 58% | 1024.4 hPa | 0 mm | - | 0 W/m² | - |
| 1777237219 | 10.56° C | 58% | 1024.4 hPa | 0 mm | - | 0 W/m² | - |
| 1777231218 | 12.22° C | 49% | 1024.3 hPa | 0 mm | - | 0 W/m² | - |
| 1777225222 | 14.44° C | 38% | 1023.6 hPa | 0 mm | - | 42 W/m² | - |
| 1777224019 | 15° C | 39% | 1023.5 hPa | 0 mm | - | 50 W/m² | - |
| 1777219818 | 16.67° C | 35% | 1023.8 hPa | 0 mm | - | 280 W/m² | - |
| 1777216219 | 16.11° C | 37% | 1024.1 hPa | 0 mm | - | 300 W/m² | - |
| 1777215618 | 16.11° C | 38% | 1024.2 hPa | 0 mm | - | 413 W/m² | - |
* Rain latest hour (hover to see other rain measurements)
** Current wind speed in m/s (hover to see current wind gust speed)